Etusivu
METAR-TAF:

METAR-TAF

Lentoasemat :

Kuopion lentoasema

Kuopio, Suomi

Leveyspiiri: 63-01N, Pituuspiiri: 027-48E, korkeus merenpinnasta: 98 m

Tämänhetkinen sää

Tämä raportti tehtiin 9 minuuttia sitten, kello 20.50 UTC
Tuuli 5 kn lännestä
Lämpötila 14°C
Kosteus 51%
Ilmanpaine 1002 hPa
Näkyvyys 10 km tai enemmän
ei pilviä alle 1500 m:ssä eikä cumulonimbus-pilviä

METAR: EFKU 202050Z AUTO 26005KT CAVOK 14/04 Q1002

Aika: 23:59 (20:59 UTC)

Sääennuste

Tämä raportti tehtiin 33 minuuttia sitten, kello 20.26 UTC
Ennuste voimassa 20. päivästä klo 21 UTC - 21. päivään klo 21 UTC
Tuuli 7 kn lännestä
Näkyvyys 10 km tai enemmän
ei pilviä alle 1500 m:ssä eikä cumulonimbus-pilviä
Tulossa
21. päivästä klo 19 UTC - 21. päivään klo 21 UTC
Tuuli 10 kn kaakosta

TAF: EFKU 202026Z 2021/2121 26007KT CAVOK BECMG 2119/2121 13010KT

Säähavainnot ja -ennusteet yli 4000 lentoasemalta (METAR- ja TAF-raportit).

Käytössä olevat sääasemat on merkitty karttaan keltaisilla ja punaisilla pisteillä.

Aseta hiiri pisteen päälle nähdäksesi sääaseman nimen.

Klikkaa sitten nähdäksesi säähavainnot ja -ennusteet.

Kartan vaihtaminen: klikkaa mustalla rastilla varustettuja vihreitä pisteitä, niin voit zoomata sisään; viivalla varustettua vihreää pistettä, niin voit zoomata ulos tai vihreitä nuolia, niin pääset viereisille kartoille.


METAR-TAF: